Mina, South Dakota
Current Conditions -  °F | °C
As of 3:53 AM on Thursday 29 Jan 2015 (Local Time) from KABR Reporting Station
Overcast Overcast  
Wind Chill: 20°   Ceiling: 2100
Heat Index: 32°   Visibility: 10mi
Dew Point: 25°   Wind: 20mph
Humidity: 75%   Direction: 340°NNW
Pressure: 30.26"   Gusts: NA
Location:  45.43°N, 98.76°W
Report Text: KABR 290953Z AUTO 34017KT 10SM OVC021 00/M04 A3026 RMK AO2 SLP260 T00001039
Loading
Personal Weather Stations






























Interactive Weather Map New forecast layout! Learn more

10-Day Weather Forecast

Advertisements
Track Severe Weather on mobile